Carlton, United Kingdom
Current Conditions -  °F | °C
As of 9:50 AM on Monday 22 Dec 2014 (Local Time) from EGNX Reporting Station
Broken Clouds Broken Clouds  
Wind Chill: 54°   Ceiling: 2200
Heat Index: 54°   Visibility: 6mi
Dew Point: 46°   Wind: 22mph
Humidity: 77%   Direction: 240°WSW
Pressure: 29.88"   Gusts: NA
Location:  52.96°N, 1.09°W
Report Text: EGNX 220950Z 24019KT 9999 BKN022 12/08 Q1012
Loading
Personal Weather Stations






























Interactive Weather Map New forecast layout! Learn more

10-Day Weather Forecast

Advertisements
Track Severe Weather on mobile